Neptune Pioneer — 3EKH6 — position and weather

sailwx.info

Track history (hours):
 
Tides and Currents Weather Stations Pressure Air Temp Water Temp Dewpoint Dewpoint Depression Visibility Wind Speed Wind Dir Waves Ship Positions

Neptune Pioneer

Last reported at 2016-Jul-25 11:30 UTC. Time now 2016-Jul-25 14:05 UTC.
Position N 49°03' W 004°54'.

Length 190 m; draft 9.7 m.

Type: Cargo ship. MMSI: 372723000.

Date/timePositionNaut miles runAvg speedWind from/ knotsBaromVisibWave heightAir tempDewpointWater temp
2016-Jul-25 11:30N 49°03' W 004°54'1112.1
2016-Jul-25 10:33N 48°57' W 005°09'1312.6
2016-Jul-25 09:33N 48°50' W 005°24'  
2016-Jul-22 22:28N 39°01' W 011°22'24 9.9
2016-Jul-22 20:05N 38°39' W 011°31'1010.2
2016-Jul-22 19:07N 38°29' W 011°35'1810.6
2016-Jul-22 17:25N 38°12' W 011°42'1411.1
2016-Jul-22 16:07N 37°59' W 011°47'27711.0
2016-Jul-21 15:05N 33°34' W 013°27'7811.1
2016-Jul-21 08:06N 32°20' W 013°56'6311.2
2016-Jul-21 02:27N 31°20' W 014°18'14011.4
2016-Jul-20 14:14N 29°06' W 015°05'1011.5
2016-Jul-20 13:24N 28°57' W 015°09'1011.4
2016-Jul-20 12:33N 28°48' W 015°11'1211.4
2016-Jul-20 11:33N 28°37' W 015°14'1211.6
2016-Jul-20 10:33N 28°26' W 015°18'1111.5
2016-Jul-20 09:34N 28°14' W 015°21'8 8.2
2016-Jul-20 08:32N 28°07' W 015°24'0 0.1
2016-Jul-20 07:32N 28°07' W 015°24'0 0.0
2016-Jul-20 06:32N 28°07' W 015°24'0 0.0
2016-Jul-20 05:32N 28°07' W 015°24'0 0.3
2016-Jul-20 04:33N 28°07' W 015°24'2 2.0
2016-Jul-20 03:34N 28°06' W 015°22'6 6.1
2016-Jul-20 02:32N 28°01' W 015°18'  
2016-Jul-17 14:24N 18°53' W 018°21'  
Track history (hours):
 
Tides and Currents Weather Stations Pressure Air Temp Water Temp Dewpoint Dewpoint Depression Visibility Wind Speed Wind Dir Waves Ship Positions

Neptune Pioneer

Last reported at 2016-Jul-25 11:30 UTC. Time now 2016-Jul-25 14:05 UTC.
Position N 49°03' W 004°54'.

Length 190 m; draft 9.7 m.

Type: Cargo ship. MMSI: 372723000.

Date/timePositionNaut miles runAvg speedWind from/ knotsBaromVisibWave heightAir tempDewpointWater temp
2016-Jul-25 11:30N 49°03' W 004°54'1112.1
2016-Jul-25 10:33N 48°57' W 005°09'1312.6
2016-Jul-25 09:33N 48°50' W 005°24'  
2016-Jul-22 22:28N 39°01' W 011°22'24 9.9
2016-Jul-22 20:05N 38°39' W 011°31'1010.2
2016-Jul-22 19:07N 38°29' W 011°35'1810.6
2016-Jul-22 17:25N 38°12' W 011°42'1411.1
2016-Jul-22 16:07N 37°59' W 011°47'27711.0
2016-Jul-21 15:05N 33°34' W 013°27'7811.1
2016-Jul-21 08:06N 32°20' W 013°56'6311.2
2016-Jul-21 02:27N 31°20' W 014°18'14011.4
2016-Jul-20 14:14N 29°06' W 015°05'1011.5
2016-Jul-20 13:24N 28°57' W 015°09'1011.4
2016-Jul-20 12:33N 28°48' W 015°11'1211.4
2016-Jul-20 11:33N 28°37' W 015°14'1211.6
2016-Jul-20 10:33N 28°26' W 015°18'1111.5
2016-Jul-20 09:34N 28°14' W 015°21'8 8.2
2016-Jul-20 08:32N 28°07' W 015°24'0 0.1
2016-Jul-20 07:32N 28°07' W 015°24'0 0.0
2016-Jul-20 06:32N 28°07' W 015°24'0 0.0
2016-Jul-20 05:32N 28°07' W 015°24'0 0.3
2016-Jul-20 04:33N 28°07' W 015°24'2 2.0
2016-Jul-20 03:34N 28°06' W 015°22'6 6.1
2016-Jul-20 02:32N 28°01' W 015°18'  
2016-Jul-17 14:24N 18°53' W 018°21'  

Dump ship's entire track history